Time;durP1;ratioP1;P1;durP2;ratioP2;P2;SDS_P1;SDS_P2;PMS_P1;PMS_P2;Temp;Humidity;BMP_temperature;BMP_pressure;BME280_temperature;BME280_humidity;BME280_pressure;Samples;Min_cycle;Max_cycle;Signal;HPM_P1;HPM_P2
2023/07/09 00:01:53;;;;;;;2.60;0.47;;;;;;;21.84;50.74;100335.19;4409839;32;33956;-83
2023/07/09 00:04:21;;;;;;;0.30;0.30;;;;;;;21.75;50.97;100341.34;4413366;32;33663;-83
2023/07/09 00:06:48;;;;;;;0.65;0.65;;;;;;;21.72;51.47;100337.91;4399923;32;31691;-83
2023/07/09 00:09:19;;;;;;;0.47;0.47;;;;;;;21.73;51.66;100339.63;4402495;32;32419;-83
2023/07/09 00:11:47;;;;;;;0.55;0.55;;;;;;;21.72;51.63;100342.44;4417808;32;33707;-83
2023/07/09 00:14:15;;;;;;;1.05;0.95;;;;;;;21.67;51.76;100341.97;4404426;32;34083;-83
2023/07/09 00:16:44;;;;;;;0.60;0.60;;;;;;;21.62;51.79;100339.66;4427312;32;34065;-83
2023/07/09 00:19:15;;;;;;;0.40;0.40;;;;;;;21.53;52.03;100343.06;4412774;32;34032;-83
2023/07/09 00:21:44;;;;;;;0.47;0.47;;;;;;;21.39;52.43;100340.66;4405419;32;32615;-83
2023/07/09 00:24:12;;;;;;;1.10;0.43;;;;;;;21.35;52.86;100344.53;4415618;32;34264;-83
2023/07/09 00:26:41;;;;;;;0.13;0.13;;;;;;;21.30;53.12;100338.66;4404254;32;32839;-83
2023/07/09 00:29:10;;;;;;;0.65;0.65;;;;;;;21.33;53.05;100341.16;4410600;32;34575;-83
2023/07/09 00:31:40;;;;;;;1.85;1.42;;;;;;;21.36;52.97;100336.34;4412548;32;33195;-83
2023/07/09 00:34:13;;;;;;;0.13;0.13;;;;;;;21.40;52.95;100337.81;4408794;32;33716;-83
2023/07/09 00:36:45;;;;;;;1.23;1.12;;;;;;;21.39;52.76;100340.66;4404042;32;33727;-83
2023/07/09 00:39:17;;;;;;;0.17;0.17;;;;;;;21.42;52.59;100340.41;4403587;32;32484;-83
2023/07/09 00:41:46;;;;;;;0.35;0.35;;;;;;;21.34;52.90;100337.47;4402950;32;35273;-83
2023/07/09 00:44:20;;;;;;;0.93;0.50;;;;;;;21.10;53.79;100341.09;4412407;32;33707;-83
2023/07/09 00:46:48;;;;;;;1.37;0.60;;;;;;;21.03;53.95;100339.88;4436076;32;33361;-83
2023/07/09 00:49:29;;;;;;;0.57;0.57;;;;;;;20.89;54.52;100346.34;4421901;32;32089;-83
2023/07/09 00:52:02;;;;;;;0.30;0.30;;;;;;;21.11;53.89;100339.25;4411481;32;35543;-83
2023/07/09 00:54:37;;;;;;;1.95;1.58;;;;;;;21.10;53.90;100341.09;4421365;32;33371;-83
2023/07/09 00:57:11;;;;;;;1.52;0.30;;;;;;;21.12;53.80;100335.59;4400417;32;34280;-83
2023/07/09 00:59:40;;;;;;;0.30;0.25;;;;;;;21.18;53.44;100333.31;4411005;32;32488;-83
2023/07/09 01:02:08;;;;;;;0.50;0.50;;;;;;;21.33;52.87;100342.00;4404765;32;33219;-83
2023/07/09 01:04:39;;;;;;;0.20;0.17;;;;;;;21.18;53.12;100335.97;4406563;32;33123;-83
2023/07/09 01:07:08;;;;;;;0.88;0.82;;;;;;;21.18;53.06;100333.31;4413341;32;33057;-83
2023/07/09 01:09:40;;;;;;;0.40;0.40;;;;;;;21.09;53.58;100333.19;4412202;32;32637;-83
2023/07/09 01:12:08;;;;;;;;;;;;;;;20.89;54.41;100338.28;4424112;32;34018;-83
2023/07/09 01:14:37;;;;;;;0.55;0.40;;;;;;;21.01;54.19;100336.44;4422207;32;34817;-83
2023/07/09 01:17:07;;;;;;;0.57;0.37;;;;;;;20.71;55.02;100335.19;4426743;32;33010;-83
2023/07/09 01:19:43;;;;;;;1.25;0.65;;;;;;;20.81;54.64;100329.13;4410236;32;33776;-83
2023/07/09 01:22:14;;;;;;;1.67;0.62;;;;;;;20.73;54.93;100332.37;4424039;32;34787;-83
2023/07/09 01:24:52;;;;;;;0.52;0.52;;;;;;;20.74;55.26;100335.91;4422788;32;33832;-83
2023/07/09 01:27:28;;;;;;;0.50;0.50;;;;;;;20.69;55.45;100326.38;4394035;32;32736;-83
2023/07/09 01:29:57;;;;;;;0.70;0.60;;;;;;;20.66;55.08;100329.34;4413897;32;32746;-83
2023/07/09 01:32:25;;;;;;;1.50;1.00;;;;;;;20.63;55.16;100331.38;4406497;32;32999;-83
2023/07/09 01:34:56;;;;;;;0.22;0.22;;;;;;;20.64;55.19;100333.94;4422793;32;33818;-83
2023/07/09 01:37:26;;;;;;;0.52;0.45;;;;;;;20.62;55.33;100327.84;4397238;32;33504;-83
2023/07/09 01:39:54;;;;;;;0.52;0.50;;;;;;;20.70;54.78;100333.50;4423304;32;33196;-83
2023/07/09 01:42:25;;;;;;;0.28;0.28;;;;;;;20.63;54.85;100337.59;4402626;32;34683;-83
2023/07/09 01:44:53;;;;;;;0.45;0.40;;;;;;;20.52;55.05;100337.59;4409631;32;34551;-83
2023/07/09 01:47:23;;;;;;;0.17;0.17;;;;;;;20.65;54.64;100338.37;4401752;32;31484;-83
2023/07/09 01:49:56;;;;;;;1.15;0.88;;;;;;;20.69;54.35;100345.19;4416899;32;33873;-83
2023/07/09 01:52:31;;;;;;;0.98;0.52;;;;;;;20.60;54.42;100345.87;4413965;32;32490;-83
2023/07/09 01:55:00;;;;;;;2.75;1.10;;;;;;;20.56;54.96;100348.94;4402094;32;32511;-83
2023/07/09 01:57:34;;;;;;;4.40;0.95;;;;;;;20.56;54.97;100343.59;4419575;32;33092;-83
2023/07/09 02:00:10;;;;;;;0.50;0.50;;;;;;;20.45;55.59;100349.72;4411102;32;33531;-83
2023/07/09 02:02:45;;;;;;;5.47;1.25;;;;;;;20.45;55.46;100347.03;4423745;32;34028;-83
2023/07/09 02:05:17;;;;;;;2.37;1.05;;;;;;;20.41;55.74;100350.91;4415195;32;33870;-83
2023/07/09 02:07:46;;;;;;;0.62;0.62;;;;;;;20.32;56.10;100354.28;4411985;32;32984;-83
2023/07/09 02:10:16;;;;;;;0.40;0.40;;;;;;;20.36;55.93;100353.09;4393414;32;33845;-83
2023/07/09 02:12:44;;;;;;;0.70;0.70;;;;;;;20.16;56.53;100350.09;4405143;32;33853;-83
2023/07/09 02:15:12;;;;;;;0.43;0.43;;;;;;;20.16;56.35;100357.28;4414342;32;34135;-83
2023/07/09 02:17:40;;;;;;;2.65;1.02;;;;;;;20.26;55.74;100355.59;4392098;32;32069;-83
2023/07/09 02:20:09;;;;;;;0.45;0.40;;;;;;;20.18;56.42;100355.34;4428606;32;33578;-83
2023/07/09 02:22:38;;;;;;;0.75;0.75;;;;;;;20.12;56.40;100362.00;4400198;32;33386;-83
2023/07/09 02:25:06;;;;;;;2.30;0.88;;;;;;;20.07;56.43;100368.69;4418313;32;33913;-83
2023/07/09 02:27:35;;;;;;;0.30;0.30;;;;;;;20.13;56.20;100371.78;4420034;32;33309;-83
2023/07/09 02:30:05;;;;;;;0.88;0.88;;;;;;;20.20;55.92;100367.66;4406204;32;33185;-83
2023/07/09 02:32:33;;;;;;;0.28;0.28;;;;;;;20.12;56.64;100369.19;4410757;32;34988;-83
2023/07/09 02:35:01;;;;;;;0.40;0.40;;;;;;;20.06;56.52;100375.87;4411283;32;33670;-83
2023/07/09 02:37:29;;;;;;;0.28;0.28;;;;;;;20.28;55.68;100374.28;4409800;32;32955;-83
2023/07/09 02:39:56;;;;;;;1.00;0.68;;;;;;;20.14;55.65;100373.47;4397040;32;32713;-83
2023/07/09 02:42:24;;;;;;;0.47;0.40;;;;;;;20.23;55.28;100371.09;4411781;32;33439;-83
2023/07/09 02:44:51;;;;;;;1.27;0.47;;;;;;;20.21;55.18;100371.19;4409443;32;33673;-83
2023/07/09 02:47:20;;;;;;;0.10;0.10;;;;;;;20.08;55.65;100365.91;4412753;32;34060;-83
2023/07/09 02:49:48;;;;;;;2.58;0.73;;;;;;;20.12;55.66;100364.69;4410500;32;33905;-83
2023/07/09 02:52:16;;;;;;;0.62;0.45;;;;;;;20.08;55.93;100362.34;4412113;32;33990;-83
2023/07/09 02:54:44;;;;;;;2.70;0.88;;;;;;;20.10;56.00;100377.34;4423229;32;34611;-83
2023/07/09 02:57:11;;;;;;;1.08;0.82;;;;;;;20.08;56.12;100365.91;4409670;32;33671;-83
2023/07/09 02:59:39;;;;;;;0.57;0.57;;;;;;;20.05;56.18;100374.16;4409659;32;33498;-83
2023/07/09 03:02:07;;;;;;;0.50;0.50;;;;;;;20.00;56.42;100375.47;4409721;32;33404;-83
2023/07/09 03:04:35;;;;;;;1.52;1.27;;;;;;;19.88;56.61;100377.22;4420932;32;33146;-83
2023/07/09 03:07:03;;;;;;;0.28;0.28;;;;;;;19.85;56.77;100381.00;4422095;32;34183;-83
2023/07/09 03:09:31;;;;;;;0.68;0.68;;;;;;;19.86;56.90;100380.03;4412261;32;33922;-83
2023/07/09 03:11:58;;;;;;;0.30;0.30;;;;;;;19.90;56.89;100378.84;4411790;32;33285;-83
2023/07/09 03:14:26;;;;;;;0.57;0.57;;;;;;;19.85;57.07;100382.81;4422838;32;33965;-83
2023/07/09 03:16:54;;;;;;;3.22;1.00;;;;;;;19.85;57.01;100388.19;4421556;32;33147;-83
2023/07/09 03:19:23;;;;;;;0.82;0.82;;;;;;;19.83;56.91;100384.75;4397074;32;32539;-83
2023/07/09 03:21:50;;;;;;;0.30;0.30;;;;;;;19.80;57.10;100387.66;4405251;32;34357;-83
2023/07/09 03:24:18;;;;;;;2.47;1.00;;;;;;;19.76;57.36;100388.84;4410489;32;32668;-83
2023/07/09 03:26:47;;;;;;;0.17;0.17;;;;;;;19.85;57.10;100393.53;4409368;32;32420;-83
2023/07/09 03:29:15;;;;;;;1.48;1.37;;;;;;;19.93;56.90;100388.47;4396166;32;33680;-83
2023/07/09 03:31:43;;;;;;;0.55;0.55;;;;;;;19.89;57.22;100389.66;4414404;32;33742;-83
2023/07/09 03:34:11;;;;;;;0.30;0.30;;;;;;;19.84;57.29;100395.34;4396677;32;32680;-83
2023/07/09 03:36:39;;;;;;;4.00;1.33;;;;;;;19.88;57.14;100394.16;4428661;32;34731;-83
2023/07/09 03:39:08;;;;;;;0.40;0.40;;;;;;;19.79;57.70;100399.31;4410272;32;32752;-83
2023/07/09 03:41:35;;;;;;;0.77;0.77;;;;;;;19.87;57.73;100399.63;4410392;32;34081;-83
2023/07/09 03:44:03;;;;;;;0.95;0.75;;;;;;;19.93;57.44;100394.66;4423553;32;34456;-83
2023/07/09 03:46:31;;;;;;;2.60;1.55;;;;;;;19.93;57.71;100402.72;4410008;32;33674;-83
2023/07/09 03:48:59;;;;;;;0.37;0.37;;;;;;;19.86;58.24;100395.25;4415263;32;34364;-83
2023/07/09 03:51:26;;;;;;;0.55;0.52;;;;;;;19.86;58.30;100400.59;4408907;32;33838;-83
2023/07/09 03:53:54;;;;;;;1.62;1.15;;;;;;;19.94;58.02;100395.56;4428765;32;33530;-82
2023/07/09 03:56:22;;;;;;;0.95;0.70;;;;;;;20.07;57.90;100390.13;4400870;32;33205;-83
2023/07/09 03:58:49;;;;;;;0.30;0.30;;;;;;;20.11;58.01;100395.16;4403758;32;33763;-83
2023/07/09 04:01:17;;;;;;;2.10;1.00;;;;;;;20.25;57.70;100390.59;4423901;32;33921;-83
2023/07/09 04:03:45;;;;;;;0.60;0.50;;;;;;;20.37;57.50;100387.88;4430824;32;34488;-83
2023/07/09 04:06:13;;;;;;;0.15;0.13;;;;;;;20.48;57.75;100387.06;4414535;32;32162;-83
2023/07/09 04:08:40;;;;;;;0.70;0.70;;;;;;;20.58;57.07;100388.09;4416248;32;33789;-83
2023/07/09 04:11:09;;;;;;;0.30;0.30;;;;;;;20.67;57.04;100382.03;4416686;32;33820;-83
2023/07/09 04:13:37;;;;;;;1.40;0.68;;;;;;;20.95;56.26;100390.63;4405124;32;32176;-83
2023/07/09 04:16:04;;;;;;;0.60;0.60;;;;;;;21.01;56.16;100384.78;4428421;32;34132;-83
2023/07/09 04:18:33;;;;;;;0.80;0.52;;;;;;;20.98;56.75;100385.00;4418136;32;32524;-83
2023/07/09 04:21:00;;;;;;;0.62;0.52;;;;;;;21.02;56.93;100381.12;4412769;32;32423;-83
2023/07/09 04:23:28;;;;;;;0.22;0.22;;;;;;;21.09;56.86;100386.88;4425782;32;34472;-83
2023/07/09 04:25:57;;;;;;;0.85;0.55;;;;;;;21.22;56.52;100387.59;4419595;32;34069;-83
2023/07/09 04:28:25;;;;;;;0.62;0.57;;;;;;;21.21;56.79;100391.28;4399827;32;33602;-83
2023/07/09 04:30:52;;;;;;;0.35;0.35;;;;;;;21.29;56.61;100385.31;4428424;32;35160;-83
2023/07/09 04:33:20;;;;;;;0.20;0.20;;;;;;;21.32;56.54;100383.28;4413285;32;34473;-83
2023/07/09 04:35:49;;;;;;;0.77;0.50;;;;;;;21.62;55.81;100384.47;4404345;32;33039;-83
2023/07/09 04:38:17;;;;;;;0.73;0.60;;;;;;;21.93;55.25;100385.50;4418569;32;33493;-83
2023/07/09 04:40:46;;;;;;;0.43;0.35;;;;;;;21.94;52.17;100379.19;4414735;32;32995;-83
2023/07/09 04:43:14;;;;;;;1.02;0.57;;;;;;;22.15;49.97;100388.19;4418145;32;32654;-83
2023/07/09 04:45:41;;;;;;;0.10;0.10;;;;;;;22.38;49.63;100382.75;4406577;32;33087;-83
2023/07/09 04:48:09;;;;;;;0.52;0.52;;;;;;;22.41;49.15;100377.09;4416472;32;33544;-83
2023/07/09 04:50:37;;;;;;;0.37;0.37;;;;;;;22.73;48.48;100383.28;4428619;32;34715;-84
2023/07/09 04:53:04;;;;;;;0.50;0.50;;;;;;;22.75;48.92;100388.56;4415835;32;34249;-83
2023/07/09 04:55:33;;;;;;;0.28;0.28;;;;;;;23.03;48.18;100383.53;4408197;32;32549;-83
2023/07/09 04:58:00;;;;;;;0.13;0.13;;;;;;;23.16;47.69;100385.00;4423010;32;34683;-83
2023/07/09 05:00:28;;;;;;;0.77;0.70;;;;;;;23.35;47.45;100383.41;4405684;32;34167;-83
2023/07/09 05:02:56;;;;;;;0.50;0.50;;;;;;;23.44;46.96;100382.59;4416430;32;33541;-83
2023/07/09 05:05:23;;;;;;;1.37;1.00;;;;;;;23.63;46.56;100388.06;4431608;32;33548;-83
2023/07/09 05:07:51;;;;;;;0.30;0.30;;;;;;;23.81;46.21;100382.91;4409612;32;33323;-83
2023/07/09 05:10:19;;;;;;;0.50;0.50;;;;;;;24.01;45.79;100386.50;4397933;32;32939;-83
2023/07/09 05:12:48;;;;;;;0.25;0.25;;;;;;;24.10;45.77;100384.81;4408145;32;32244;-83
2023/07/09 05:15:16;;;;;;;0.68;0.68;;;;;;;24.26;45.52;100385.13;4404172;32;33743;-83
2023/07/09 05:17:45;;;;;;;0.62;0.62;;;;;;;24.38;45.49;100383.16;4428430;32;33482;-84
2023/07/09 05:20:14;;;;;;;0.90;0.70;;;;;;;24.41;45.48;100381.03;4408592;32;33969;-83
2023/07/09 05:22:41;;;;;;;0.40;0.40;;;;;;;24.68;44.88;100385.69;4404354;32;32785;-84
2023/07/09 05:25:09;;;;;;;0.30;0.30;;;;;;;24.60;44.58;100382.03;4423577;32;33171;-83
2023/07/09 05:27:37;;;;;;;0.85;0.85;;;;;;;24.78;44.56;100386.56;4403556;32;34009;-83
2023/07/09 05:30:05;;;;;;;1.35;0.85;;;;;;;25.10;43.81;100379.13;4398830;32;33132;-83
2023/07/09 05:32:33;;;;;;;0.93;0.70;;;;;;;25.32;44.77;100372.53;4406944;32;34518;-83
2023/07/09 05:35:01;;;;;;;0.73;0.73;;;;;;;25.31;43.95;100376.22;4398685;32;32094;-83
2023/07/09 05:37:30;;;;;;;0.70;0.70;;;;;;;25.25;43.96;100383.91;4402572;32;33599;-84
2023/07/09 05:39:57;;;;;;;0.75;0.65;;;;;;;25.45;43.74;100373.91;4410795;32;33734;-83
2023/07/09 05:42:25;;;;;;;1.10;0.35;;;;;;;25.52;42.44;100385.81;4397512;32;33411;-83
2023/07/09 05:44:52;;;;;;;1.48;0.70;;;;;;;25.83;42.82;100381.97;4406473;32;32899;-84
2023/07/09 05:47:20;;;;;;;0.47;0.47;;;;;;;26.19;41.98;100383.75;4399285;32;32486;-83
2023/07/09 05:49:50;;;;;;;0.52;0.52;;;;;;;26.46;41.86;100384.72;4428790;32;33623;-83
2023/07/09 05:52:19;;;;;;;1.85;0.65;;;;;;;26.44;40.72;100386.72;4424093;32;33999;-84
2023/07/09 05:54:51;;;;;;;0.85;0.70;;;;;;;26.59;40.51;100384.28;4417962;32;33004;-84
2023/07/09 05:57:18;;;;;;;1.27;0.65;;;;;;;27.05;38.49;100385.84;4420296;32;32320;-83
2023/07/09 05:59:47;;;;;;;0.52;0.52;;;;;;;27.14;40.06;100379.50;4432825;32;33739;-84
2023/07/09 06:02:17;;;;;;;0.60;0.55;;;;;;;26.94;39.41;100388.84;4432600;32;33890;-83
2023/07/09 06:04:46;;;;;;;0.43;0.40;;;;;;;26.79;39.31;100381.28;4419812;32;33566;-83
2023/07/09 06:07:14;;;;;;;0.75;0.57;;;;;;;27.35;38.64;100386.41;4403652;32;33856;-83
2023/07/09 06:09:42;;;;;;;0.57;0.57;;;;;;;27.45;39.34;100388.00;4419756;32;32678;-84
2023/07/09 06:12:10;;;;;;;0.45;0.45;;;;;;;27.68;39.28;100384.69;4428008;32;34047;-84
2023/07/09 06:14:37;;;;;;;1.52;1.17;;;;;;;27.83;40.38;100379.56;4404066;32;32214;-84
2023/07/09 06:17:05;;;;;;;1.52;0.62;;;;;;;28.09;39.60;100377.56;4416207;32;33648;-83
2023/07/09 06:19:33;;;;;;;1.17;0.88;;;;;;;28.04;39.92;100382.66;4432410;32;34891;-83
2023/07/09 06:22:00;;;;;;;0.60;0.60;;;;;;;28.09;40.25;100383.00;4418253;32;33553;-84
2023/07/09 06:24:28;;;;;;;0.57;0.57;;;;;;;28.29;40.49;100386.25;4429165;32;33733;-84
2023/07/09 06:26:56;;;;;;;0.50;0.50;;;;;;;28.46;39.93;100381.75;4428877;32;34679;-84
2023/07/09 06:29:23;;;;;;;0.50;0.50;;;;;;;28.54;38.32;100379.03;4396705;32;33955;-84
2023/07/09 06:31:51;;;;;;;0.50;0.50;;;;;;;28.84;38.44;100383.78;4422127;32;33453;-83
2023/07/09 06:34:19;;;;;;;0.80;0.80;;;;;;;29.02;38.50;100382.78;4417112;32;33411;-84
2023/07/09 06:36:46;;;;;;;0.50;0.45;;;;;;;28.94;37.14;100386.31;4402845;32;33081;-84
2023/07/09 06:39:14;;;;;;;1.10;1.05;;;;;;;28.87;39.64;100389.91;4412311;32;34039;-84
2023/07/09 06:41:41;;;;;;;2.40;1.55;;;;;;;28.91;37.11;100377.62;4398565;32;32390;-84
2023/07/09 06:44:13;;;;;;;1.25;0.90;;;;;;;29.23;35.36;100379.50;4410861;32;32124;-84
2023/07/09 06:46:41;;;;;;;0.70;0.70;;;;;;;29.37;36.12;100383.37;4413698;32;33963;-83
2023/07/09 06:49:09;;;;;;;1.05;0.95;;;;;;;29.32;35.14;100373.00;4427850;32;33621;-84
2023/07/09 06:51:36;;;;;;;10.00;1.15;;;;;;;29.33;35.37;100372.81;4413592;32;33977;-84
2023/07/09 06:54:05;;;;;;;0.45;0.45;;;;;;;29.40;34.87;100364.00;4413564;32;31820;-83
2023/07/09 06:56:32;;;;;;;1.20;0.70;;;;;;;29.64;34.27;100374.81;4410069;32;33943;-84
2023/07/09 06:59:00;;;;;;;0.52;0.37;;;;;;;30.05;34.65;100380.03;4409978;32;33741;-84
2023/07/09 07:01:27;;;;;;;0.75;0.75;;;;;;;30.20;34.27;100374.72;4406475;32;32672;-84
2023/07/09 07:03:55;;;;;;;0.80;0.80;;;;;;;30.08;31.77;100371.50;4410319;32;32645;-84
2023/07/09 07:06:23;;;;;;;0.62;0.62;;;;;;;30.46;33.50;100374.34;4411976;32;34048;-84
2023/07/09 07:08:52;;;;;;;3.20;0.98;;;;;;;30.69;30.22;100377.91;4397014;32;34799;-84
2023/07/09 07:11:19;;;;;;;0.68;0.68;;;;;;;30.57;30.60;100379.34;4411742;32;34272;-84
2023/07/09 07:13:51;;;;;;;0.28;0.28;;;;;;;30.58;29.12;100376.47;4396600;32;33151;-84
2023/07/09 07:16:19;;;;;;;0.90;0.85;;;;;;;30.93;30.99;100373.28;4428284;32;33882;-84
2023/07/09 07:18:47;;;;;;;1.87;0.62;;;;;;;30.93;29.21;100374.12;4409545;32;32197;-84
2023/07/09 07:21:14;;;;;;;0.60;0.57;;;;;;;30.82;29.63;100375.44;4413004;32;33717;-84
2023/07/09 07:23:43;;;;;;;3.67;1.40;;;;;;;31.37;30.81;100366.00;4429645;32;33743;-84
2023/07/09 07:26:10;;;;;;;0.30;0.30;;;;;;;31.64;29.75;100365.53;4396712;32;33981;-84
2023/07/09 07:28:37;;;;;;;1.85;0.65;;;;;;;31.51;29.75;100368.94;4426963;32;34147;-84
2023/07/09 07:31:07;;;;;;;0.90;0.90;;;;;;;31.50;27.98;100359.91;4414691;32;33802;-84
2023/07/09 07:33:36;;;;;;;0.47;0.47;;;;;;;31.45;29.29;100364.22;4411968;32;32653;-84
2023/07/09 07:36:05;;;;;;;0.32;0.32;;;;;;;31.51;28.28;100361.59;4426607;32;33954;-84
2023/07/09 07:38:52;;;;;;;0.47;0.47;;;;;;;31.75;27.56;100360.41;4423996;32;33981;-84
2023/07/09 07:41:20;;;;;;;1.37;0.68;;;;;;;31.89;28.06;100363.34;4423119;32;33568;-84
2023/07/09 07:43:47;;;;;;;0.37;0.37;;;;;;;31.98;27.78;100351.28;4425325;32;33456;-84
2023/07/09 07:46:15;;;;;;;0.85;0.82;;;;;;;32.21;28.67;100368.34;4421964;32;33872;-84
2023/07/09 07:48:43;;;;;;;0.22;0.22;;;;;;;32.26;27.02;100360.41;4422073;32;34767;-84
2023/07/09 07:51:10;;;;;;;0.75;0.73;;;;;;;32.26;27.85;100365.03;4414752;32;33144;-84
2023/07/09 07:53:38;;;;;;;0.50;0.50;;;;;;;32.25;27.47;100358.72;4422591;32;33331;-84
2023/07/09 07:56:06;;;;;;;2.90;0.55;;;;;;;32.71;28.08;100363.81;4409253;32;33452;-84
2023/07/09 07:58:33;;;;;;;0.95;0.73;;;;;;;32.66;27.51;100366.28;4404884;32;33232;-84
2023/07/09 08:01:01;;;;;;;0.60;0.60;;;;;;;32.50;28.56;100366.56;4412583;32;33814;-84
2023/07/09 08:03:31;;;;;;;0.32;0.32;;;;;;;32.67;27.67;100357.06;4401880;32;33433;-84
2023/07/09 08:05:59;;;;;;;1.02;1.02;;;;;;;32.24;28.01;100362.50;4410156;32;34649;-84
2023/07/09 08:08:29;;;;;;;1.92;0.28;;;;;;;32.64;28.20;100362.91;4409059;32;33261;-84
2023/07/09 08:11:04;;;;;;;1.77;0.73;;;;;;;32.81;27.38;100364.31;4412284;32;33439;-84
2023/07/09 08:13:37;;;;;;;1.00;1.00;;;;;;;32.42;26.91;100355.75;4400129;32;32401;-84
2023/07/09 08:16:05;;;;;;;2.17;0.77;;;;;;;32.94;26.46;100351.81;4410445;32;33979;-84
2023/07/09 08:18:34;;;;;;;0.90;0.90;;;;;;;33.07;26.84;100352.75;4401582;32;33757;-84
2023/07/09 08:21:03;;;;;;;0.88;0.73;;;;;;;32.98;26.62;100353.94;4401915;32;32904;-84
2023/07/09 08:23:31;;;;;;;0.80;0.52;;;;;;;33.29;27.01;100353.53;4404837;32;31661;-84
2023/07/09 08:26:01;;;;;;;1.05;0.57;;;;;;;33.06;26.39;100350.22;4403178;32;33386;-84
2023/07/09 08:28:30;;;;;;;0.98;0.88;;;;;;;32.54;28.02;100351.47;4409224;32;32808;-84
2023/07/09 08:30:58;;;;;;;0.93;0.75;;;;;;;32.89;26.73;100358.69;4413523;32;33992;-84
2023/07/09 08:33:26;;;;;;;1.55;0.90;;;;;;;33.32;27.05;100350.34;4420394;32;33144;-84
2023/07/09 08:35:54;;;;;;;1.05;1.05;;;;;;;33.38;26.72;100344.09;4411379;32;33077;-85
2023/07/09 08:38:22;;;;;;;0.30;0.30;;;;;;;33.65;26.59;100346.97;4400800;32;34210;-84
2023/07/09 08:41:09;;;;;;;0.50;0.50;;;;;;;33.54;25.38;100355.78;4415046;32;33820;-84
2023/07/09 08:43:55;;;;;;;0.30;0.28;;;;;;;33.63;25.73;100346.34;4411846;32;33151;-85
2023/07/09 08:46:53;;;;;;;1.05;0.40;;;;;;;33.80;25.77;100339.44;4423385;32;33301;-84
2023/07/09 08:49:37;;;;;;;0.80;0.70;;;;;;;33.73;26.91;100351.44;4424473;32;33226;-85
2023/07/09 08:52:15;;;;;;;0.20;0.20;;;;;;;33.98;26.63;100347.12;4420645;32;33913;-84
2023/07/09 08:54:44;;;;;;;2.67;0.68;;;;;;;33.98;24.85;100349.03;4403544;32;32023;-84
2023/07/09 08:57:29;;;;;;;1.17;1.08;;;;;;;33.99;24.20;100346.06;4414298;32;33135;-84
2023/07/09 09:00:08;;;;;;;0.45;0.45;;;;;;;33.89;24.60;100340.12;4414174;32;34459;-84
2023/07/09 09:02:39;;;;;;;0.28;0.28;;;;;;;33.57;24.38;100337.06;4405473;32;32303;-84
2023/07/09 09:05:08;;;;;;;0.70;0.50;;;;;;;33.22;25.87;100340.84;4419221;32;33034;-84
2023/07/09 09:07:41;;;;;;;0.65;0.65;;;;;;;33.64;25.33;100342.56;4417022;32;32520;-85
2023/07/09 09:10:41;;;;;;;0.50;0.50;;;;;;;33.80;25.28;100336.72;4411779;32;34687;-84
2023/07/09 09:13:15;;;;;;;0.70;0.70;;;;;;;33.66;25.56;100340.44;4434986;32;33959;-85
2023/07/09 09:15:45;;;;;;;0.65;0.65;;;;;;;33.83;23.81;100335.47;4412703;32;33389;-84
2023/07/09 09:18:27;;;;;;;1.05;0.90;;;;;;;33.48;25.12;100337.44;4410374;32;34007;-84
2023/07/09 09:20:57;;;;;;;1.37;0.95;;;;;;;33.33;23.83;100340.28;4405199;32;32791;-84
2023/07/09 09:23:36;;;;;;;0.57;0.55;;;;;;;34.04;25.23;100348.19;4432017;32;34595;-84
2023/07/09 09:26:12;;;;;;;0.75;0.75;;;;;;;34.09;24.08;100341.06;4416365;32;31588;-85
2023/07/09 09:28:40;;;;;;;0.62;0.62;;;;;;;34.38;22.51;100342.59;4402133;32;33711;-85
2023/07/09 09:31:11;;;;;;;1.05;0.98;;;;;;;34.18;22.69;100347.16;4431273;32;34383;-85
2023/07/09 09:33:43;;;;;;;3.70;1.02;;;;;;;34.54;24.60;100337.78;4434157;32;34187;-84
2023/07/09 09:36:17;;;;;;;0.50;0.50;;;;;;;34.52;24.27;100335.25;4403093;32;31685;-84
2023/07/09 09:38:45;;;;;;;0.22;0.22;;;;;;;34.02;23.61;100333.88;4401091;32;33780;-84
2023/07/09 09:41:24;;;;;;;0.98;0.68;;;;;;;34.71;23.46;100339.03;4424136;32;33948;-84
2023/07/09 09:43:53;;;;;;;2.92;1.42;;;;;;;34.67;23.93;100340.53;4412115;32;34133;-84
2023/07/09 09:46:23;;;;;;;0.95;0.65;;;;;;;34.85;23.89;100340.72;4409559;32;33146;-85
2023/07/09 09:48:54;;;;;;;1.25;0.90;;;;;;;35.12;23.05;100340.69;4411278;32;33324;-85
2023/07/09 09:51:23;;;;;;;0.60;0.60;;;;;;;34.64;24.90;100333.53;4410093;32;33607;-84
2023/07/09 09:53:57;;;;;;;6.80;1.05;;;;;;;34.69;24.37;100335.66;4421103;32;32600;-84
2023/07/09 09:56:28;;;;;;;1.87;0.95;;;;;;;35.08;25.22;100333.94;4403205;32;31733;-84
2023/07/09 09:58:57;;;;;;;0.52;0.47;;;;;;;34.84;21.86;100333.53;4412335;32;33579;-85
2023/07/09 10:01:30;;;;;;;0.85;0.85;;;;;;;34.54;24.29;100332.28;4402770;32;34018;-85
2023/07/09 10:03:59;;;;;;;0.80;0.80;;;;;;;34.63;24.03;100336.50;4398683;32;32273;-85
2023/07/09 10:06:36;;;;;;;0.90;0.73;;;;;;;34.92;22.76;100335.22;4410076;32;33350;-84
2023/07/09 10:09:25;;;;;;;0.98;0.95;;;;;;;34.82;22.75;100329.31;4417100;32;33522;-84
2023/07/09 10:12:28;;;;;;;0.65;0.65;;;;;;;34.70;22.99;100331.00;4424516;32;33903;-84
2023/07/09 10:15:13;;;;;;;1.50;0.65;;;;;;;35.12;23.64;100324.22;4390504;32;34640;-84
2023/07/09 10:17:57;;;;;;;0.52;0.52;;;;;;;34.98;22.70;100323.41;4422873;32;34051;-84
2023/07/09 10:20:28;;;;;;;1.35;1.05;;;;;;;35.48;23.50;100323.75;4431185;32;34639;-85
2023/07/09 10:23:13;;;;;;;2.03;0.82;;;;;;;34.88;23.86;100317.50;4405129;32;33765;-85
2023/07/09 10:25:46;;;;;;;0.65;0.65;;;;;;;35.48;23.58;100318.25;4423240;32;34586;-85
2023/07/09 10:28:16;;;;;;;0.90;0.70;;;;;;;35.27;23.17;100313.84;4409915;32;33456;-85
2023/07/09 10:31:08;;;;;;;1.70;1.20;;;;;;;34.93;23.46;100325.91;4415741;32;34659;-85
2023/07/09 10:33:43;;;;;;;0.47;0.47;;;;;;;35.02;23.38;100323.84;4408303;32;33111;-85
2023/07/09 10:36:49;;;;;;;1.70;1.40;;;;;;;34.72;24.24;100327.00;4414118;32;32415;-85
2023/07/09 10:39:25;;;;;;;0.93;0.82;;;;;;;34.52;23.67;100323.44;4410068;32;33395;-84
2023/07/09 10:41:59;;;;;;;1.23;0.32;;;;;;;34.43;24.38;100333.72;4410364;32;32737;-84
2023/07/09 10:44:36;;;;;;;1.67;0.70;;;;;;;34.49;24.90;100327.44;4421866;32;33710;-84
2023/07/09 10:47:16;;;;;;;0.20;0.20;;;;;;;34.71;23.61;100321.75;4417170;32;33647;-85
2023/07/09 10:49:44;;;;;;;0.50;0.50;;;;;;;34.97;22.96;100315.41;4409802;32;33663;-85
2023/07/09 10:52:21;;;;;;;0.68;0.68;;;;;;;35.05;23.92;100318.75;4408931;32;34093;-85
2023/07/09 10:55:17;;;;;;;1.45;1.15;;;;;;;35.71;23.51;100312.22;4418316;32;32418;-85
2023/07/09 10:57:51;;;;;;;0.65;0.65;;;;;;;35.75;23.31;100316.22;4429222;32;33662;-84
2023/07/09 11:00:20;;;;;;;2.28;0.60;;;;;;;35.37;22.19;100306.00;4414555;32;31870;-84
2023/07/09 11:02:58;;;;;;;2.55;1.00;;;;;;;34.77;23.74;100315.41;4414264;32;32829;-84
2023/07/09 11:05:26;;;;;;;0.40;0.40;;;;;;;34.62;23.07;100315.63;4409554;32;33353;-84
2023/07/09 11:08:05;;;;;;;8.85;0.50;;;;;;;35.20;25.08;100307.53;4429187;32;33597;-84
2023/07/09 11:11:02;;;;;;;0.68;0.57;;;;;;;35.26;23.09;100306.66;4405127;32;32329;-84
2023/07/09 11:13:38;;;;;;;1.12;0.73;;;;;;;35.80;22.37;100297.19;4431629;32;35356;-84
2023/07/09 11:16:29;;;;;;;0.60;0.60;;;;;;;35.60;23.27;100311.00;4415910;32;34072;-84
2023/07/09 11:19:00;;;;;;;0.50;0.50;;;;;;;35.49;23.60;100310.84;4418470;32;34049;-84
2023/07/09 11:21:28;;;;;;;0.20;0.20;;;;;;;35.33;24.43;100296.50;4412265;32;33323;-85
2023/07/09 11:24:00;;;;;;;0.60;0.60;;;;;;;35.86;23.56;100296.28;4403946;32;34003;-85
2023/07/09 11:26:35;;;;;;;0.65;0.65;;;;;;;36.05;22.56;100288.19;4422845;32;33710;-84
2023/07/09 11:29:02;;;;;;;1.52;0.95;;;;;;;35.47;23.57;100294.59;4398901;32;32053;-85
2023/07/09 11:31:30;;;;;;;0.85;0.50;;;;;;;35.56;22.98;100290.53;4423976;32;31811;-85
2023/07/09 11:34:12;;;;;;;5.37;1.20;;;;;;;35.64;21.68;100292.19;4433519;32;33858;-85
2023/07/09 11:36:46;;;;;;;1.85;0.73;;;;;;;35.62;23.17;100286.91;4422664;32;32254;-85
2023/07/09 11:39:27;;;;;;;2.83;0.90;;;;;;;35.83;22.23;100293.97;4417373;32;33105;-85
2023/07/09 11:41:55;;;;;;;1.17;0.95;;;;;;;35.92;20.69;100295.41;4418698;32;31847;-85